Baltimore, Maryland
Traffic Map
Current Weather Conditions
Baltimore, Maryland
Broken Clouds
Broken Clouds
40°
Feels Like: 34°
Wind Chill: 34° Ceiling: 25000
Heat Index: 40° Visibility: 10mi
Dew Point: 22° Wind: 8mph
Humidity: 49% Direction: 80° (E)
Pressure: 30.36in Gusts: 0mph
Raw Report DataKBWI 211254Z 08007KT 10SM SCT160 BKN250 04/M06 A3036 RMK AO2 SLP281 T00441056
Traffic Incident Summary
Active as of:
Severity:
Category:
InformationThere was an issue retrieving the traffic information for this location. Please try a different location or try again shortly.
Advertisements
Track Severe Weather on mobile